createdAt,value
2018-12-11T00:24:59.174Z,12.23
2018-12-11T00:27:44.937Z,11.80
2018-12-11T00:33:49.175Z,10.77
2018-12-11T00:39:36.737Z,7.90
2018-12-11T00:42:35.242Z,8.63
2018-12-11T00:48:25.078Z,7.60
2018-12-11T00:54:07.282Z,8.50
2018-12-11T00:57:04.879Z,7.53
2018-12-11T01:03:12.224Z,7.67
2018-12-11T01:06:12.404Z,9.20
2018-12-11T01:26:35.157Z,3.43
2018-12-11T01:29:06.420Z,3.67
2018-12-11T01:31:35.482Z,3.43
2018-12-11T01:34:05.034Z,3.53
2018-12-11T01:36:36.947Z,3.53
2018-12-11T01:39:09.606Z,3.63
2018-12-11T01:41:44.546Z,3.20
2018-12-11T01:44:14.813Z,2.87
2018-12-11T01:46:45.332Z,3.33
2018-12-11T01:49:17.284Z,3.30
2018-12-11T01:51:47.298Z,3.57
2018-12-11T01:54:17.605Z,3.40
2018-12-11T01:56:47.230Z,3.13
2018-12-11T01:59:20.249Z,2.93
2018-12-11T02:01:49.974Z,3.07
2018-12-11T02:04:23.285Z,2.97
2018-12-11T02:06:57.817Z,2.97
2018-12-11T02:09:35.150Z,2.80
2018-12-11T02:12:16.523Z,2.73
2018-12-11T02:14:46.625Z,2.90
2018-12-11T02:17:17.390Z,2.97
2018-12-11T02:19:48.187Z,3.30
2018-12-11T02:22:19.056Z,3.10
2018-12-11T02:24:48.330Z,2.33
2018-12-11T02:27:18.059Z,2.77
2018-12-11T02:29:47.875Z,2.70
2018-12-11T02:32:19.157Z,3.17
2018-12-11T02:34:49.123Z,3.20
2018-12-11T02:37:18.313Z,2.63
2018-12-11T02:39:49.172Z,2.97
2018-12-11T02:42:19.639Z,2.90
2018-12-11T02:44:49.974Z,2.73
2018-12-11T02:47:23.819Z,3.07
2018-12-11T02:50:00.512Z,3.40
2018-12-11T02:52:33.096Z,3.37
2018-12-11T02:55:03.456Z,3.23
2018-12-11T02:57:33.258Z,3.70
2018-12-11T03:00:05.999Z,3.17
2018-12-11T03:02:35.806Z,2.97
2018-12-11T03:05:06.024Z,3.40
2018-12-11T03:07:36.230Z,2.93
2018-12-11T03:10:06.629Z,3.10
2018-12-11T03:12:36.980Z,3.13
2018-12-11T03:15:07.603Z,2.90
2018-12-11T03:17:54.691Z,3.30
2018-12-11T03:20:34.036Z,3.37
2018-12-11T03:23:10.932Z,3.57
2018-12-11T03:25:44.370Z,3.43
2018-12-11T03:28:24.825Z,3.80
2018-12-11T03:30:59.564Z,3.27
2018-12-11T03:33:39.402Z,2.90
2018-12-11T03:36:15.708Z,3.27
2018-12-11T03:38:51.954Z,3.50
2018-12-11T03:41:22.426Z,3.60
2018-12-11T03:43:53.542Z,3.50
2018-12-11T03:46:24.959Z,3.43
2018-12-11T03:48:59.164Z,3.40
2018-12-11T03:51:29.139Z,3.20
2018-12-11T03:53:58.977Z,3.93
2018-12-11T03:56:29.832Z,3.73
2018-12-11T03:59:00.732Z,3.77
2018-12-11T04:01:33.804Z,3.50
2018-12-11T04:04:07.667Z,3.20
2018-12-11T04:06:41.675Z,3.80
2018-12-11T04:09:12.853Z,4.20
2018-12-11T04:11:42.255Z,4.30
2018-12-11T04:14:13.502Z,4.43
2018-12-11T04:16:44.851Z,4.27
2018-12-11T04:19:15.532Z,4.03
2018-12-11T04:21:47.149Z,4.10
2018-12-11T04:24:18.149Z,3.47
2018-12-11T04:26:51.635Z,3.77
2018-12-11T04:29:23.141Z,3.87
2018-12-11T04:31:54.029Z,3.10
2018-12-11T04:34:26.895Z,3.77
2018-12-11T04:37:04.953Z,3.47
2018-12-11T04:39:37.567Z,3.87
2018-12-11T04:42:09.763Z,3.33
2018-12-11T04:44:50.779Z,3.73
2018-12-11T04:47:24.310Z,4.17
2018-12-11T04:50:01.025Z,3.73
2018-12-11T04:52:44.436Z,3.87
2018-12-11T04:55:16.467Z,4.07
2018-12-11T04:57:47.562Z,3.57
2018-12-11T05:00:18.970Z,4.00
2018-12-11T05:02:50.627Z,4.85
2018-12-11T05:05:22.118Z,3.87
2018-12-11T05:07:55.920Z,4.10
2018-12-11T05:10:28.361Z,3.87
2018-12-11T05:13:04.478Z,3.83
2018-12-11T05:15:34.053Z,4.37
2018-12-11T05:18:07.535Z,4.03
2018-12-11T05:20:45.021Z,4.47
2018-12-11T05:23:16.567Z,3.80
2018-12-11T05:25:47.530Z,3.63
2018-12-11T05:28:19.928Z,3.23
2018-12-11T05:30:50.810Z,3.27
2018-12-11T05:33:23.626Z,3.27
2018-12-11T05:35:55.530Z,3.70
2018-12-11T05:38:41.018Z,5.70
2018-12-11T05:41:17.300Z,3.90
2018-12-11T05:43:50.950Z,4.20
2018-12-11T05:46:24.521Z,2.40
2018-12-11T05:48:59.885Z,3.03
2018-12-11T05:51:31.834Z,3.03
2018-12-11T05:54:05.833Z,4.20
2018-12-11T07:47:41.440Z,3.47
2018-12-11T07:50:30.585Z,4.30
2018-12-11T17:04:09.366Z,9.03
2018-12-11T17:06:38.253Z,10.33
2018-12-11T17:09:09.558Z,8.10
2018-12-11T17:11:38.379Z,6.47
2018-12-11T17:14:07.299Z,6.57
2018-12-11T17:16:36.113Z,6.13
2018-12-11T17:19:04.936Z,5.93
2018-12-11T17:21:35.267Z,6.90
2018-12-11T17:24:04.239Z,5.73
2018-12-11T17:26:33.109Z,6.57
2018-12-11T17:29:01.970Z,6.63
2018-12-11T17:31:31.890Z,6.73
2018-12-11T17:34:00.797Z,7.00
2018-12-11T17:36:29.609Z,6.40
2018-12-11T17:38:58.958Z,6.73
2018-12-11T17:41:27.808Z,6.30
2018-12-11T17:43:56.646Z,6.20
2018-12-11T17:46:25.617Z,6.70
2018-12-11T17:48:55.689Z,6.00
2018-12-11T17:51:24.571Z,5.23
2018-12-11T17:53:53.468Z,6.07
2018-12-11T17:56:22.374Z,6.17
2018-12-11T17:58:51.258Z,6.47
2018-12-11T18:01:21.562Z,5.93
2018-12-11T18:03:50.494Z,5.63
2018-12-11T18:06:19.378Z,5.70
2018-12-11T18:08:48.230Z,6.37
2018-12-11T18:11:18.362Z,5.80
2018-12-11T18:13:47.259Z,5.90
2018-12-11T18:16:16.170Z,5.37
2018-12-11T18:18:45.471Z,5.53
2018-12-11T18:21:14.349Z,5.30
2018-12-11T18:23:43.267Z,6.00
2018-12-11T18:26:12.147Z,6.10
2018-12-11T18:28:42.395Z,5.90
2018-12-11T18:31:11.323Z,6.00
2018-12-11T18:33:40.180Z,6.00
2018-12-11T18:36:09.013Z,5.93
2018-12-11T18:38:38.890Z,6.40
2018-12-11T18:41:08.062Z,5.70
2018-12-11T18:43:38.349Z,5.43
2018-12-11T18:46:07.296Z,6.37
2018-12-11T18:48:36.182Z,6.23
2018-12-11T18:51:05.297Z,6.07
2018-12-11T18:53:34.182Z,6.23
2018-12-11T18:56:03.014Z,5.67
2018-12-11T18:58:34.365Z,5.77
2018-12-11T19:01:02.930Z,6.23
2018-12-11T19:03:31.815Z,5.80
2018-12-11T19:06:00.714Z,7.23
2018-12-11T19:08:29.582Z,7.27
2018-12-11T19:10:59.856Z,8.60
2018-12-11T19:13:28.746Z,10.40
2018-12-11T19:15:58.235Z,9.50
2018-12-11T19:18:27.336Z,10.23
2018-12-11T19:20:56.214Z,11.60
2018-12-11T19:23:36.348Z,7.23
2018-12-11T19:26:05.351Z,8.20
2018-12-11T19:28:34.204Z,14.10
2018-12-11T19:31:03.513Z,15.20
2018-12-11T19:33:33.597Z,11.87
2018-12-11T19:36:03.068Z,12.00
2018-12-11T19:38:31.948Z,13.57
2018-12-11T19:41:00.867Z,10.50
2018-12-11T19:43:29.722Z,12.23
2018-12-11T19:45:58.609Z,12.97
2018-12-11T19:48:27.545Z,12.27
2018-12-11T19:50:56.377Z,14.53
2018-12-11T19:53:26.795Z,21.23
2018-12-11T19:55:57.786Z,28.53
2018-12-11T19:58:26.647Z,25.90
2018-12-11T20:00:55.550Z,26.80
2018-12-11T20:03:25.687Z,24.10
2018-12-11T20:05:54.609Z,24.10
2018-12-11T20:08:23.475Z,24.13
2018-12-11T20:10:55.677Z,22.60
2018-12-11T20:13:24.716Z,22.20
2018-12-11T20:15:53.569Z,23.17
2018-12-11T20:18:22.560Z,22.23
2018-12-11T20:20:56.315Z,22.70
2018-12-11T20:23:25.203Z,21.23
2018-12-11T20:25:54.174Z,20.87
2018-12-11T20:28:23.018Z,23.67
2018-12-11T20:30:51.934Z,23.53
2018-12-11T20:33:20.805Z,24.13
2018-12-11T20:35:49.970Z,18.07
2018-12-11T20:38:21.299Z,27.40
2018-12-11T20:40:51.514Z,23.73
2018-12-11T20:43:26.673Z,26.50
2018-12-11T20:45:55.687Z,24.80
2018-12-11T20:48:24.847Z,25.77
2018-12-11T20:50:53.790Z,20.17
2018-12-11T20:53:22.683Z,20.63
2018-12-11T20:55:51.694Z,17.50
2018-12-11T20:58:20.602Z,18.13
2018-12-11T21:00:49.780Z,23.20
2018-12-11T21:03:18.781Z,30.40
2018-12-11T21:05:49.077Z,25.27
2018-12-11T21:08:19.491Z,16.60
2018-12-11T21:10:48.305Z,14.37
2018-12-11T21:13:18.948Z,15.03
2018-12-11T21:15:48.007Z,12.37
2018-12-11T21:18:16.856Z,13.07
2018-12-11T21:20:45.737Z,12.97
2018-12-11T21:23:14.574Z,15.00
2018-12-11T21:25:43.421Z,13.83
2018-12-11T21:28:12.265Z,14.30
2018-12-11T21:30:41.133Z,13.63
2018-12-11T21:33:10.597Z,14.33
2018-12-11T21:35:39.450Z,13.17
2018-12-11T21:38:08.333Z,13.83
2018-12-11T21:40:37.187Z,16.23
2018-12-11T21:43:06.021Z,15.73
2018-12-11T21:45:40.282Z,15.80
2018-12-11T21:48:09.187Z,14.40
2018-12-11T21:50:38.037Z,15.03
2018-12-11T21:53:06.854Z,13.00
2018-12-11T21:55:35.877Z,12.63
2018-12-11T21:58:04.778Z,12.10
2018-12-11T22:00:33.669Z,10.83
2018-12-11T22:03:02.574Z,11.80
2018-12-11T22:05:31.409Z,11.17
2018-12-11T22:08:00.233Z,11.23
2018-12-11T22:10:30.123Z,11.90
2018-12-11T22:12:58.986Z,10.90
2018-12-11T22:15:27.810Z,10.77
2018-12-11T22:17:56.669Z,12.37
2018-12-11T22:20:25.577Z,10.27
2018-12-11T22:22:54.431Z,10.93
2018-12-11T22:25:23.342Z,11.27
2018-12-11T22:27:52.198Z,11.37
2018-12-11T22:30:21.193Z,10.53
2018-12-11T22:32:50.268Z,11.07
2018-12-11T22:35:19.191Z,11.43
2018-12-11T22:37:48.032Z,10.53
2018-12-11T22:40:16.938Z,9.30
2018-12-11T22:42:52.098Z,8.67
2018-12-11T22:45:20.953Z,9.27
2018-12-11T22:47:49.773Z,6.83
2018-12-11T22:50:18.592Z,7.13
2018-12-11T22:52:48.082Z,6.27
2018-12-11T22:55:17.128Z,5.17
2018-12-11T22:57:45.968Z,4.13
2018-12-11T23:00:14.878Z,4.37
2018-12-11T23:02:44.563Z,4.90
2018-12-11T23:05:13.488Z,4.00
2018-12-11T23:07:42.401Z,4.07
2018-12-11T23:10:11.290Z,3.93
2018-12-11T23:12:40.157Z,3.93
2018-12-11T23:15:09.118Z,4.10
2018-12-11T23:17:40.041Z,4.27
2018-12-11T23:20:08.985Z,3.70
2018-12-11T23:22:37.847Z,4.73
2018-12-11T23:25:07.177Z,3.27
2018-12-11T23:27:36.060Z,4.20
2018-12-11T23:30:05.676Z,5.13
2018-12-11T23:32:34.614Z,4.73
2018-12-11T23:35:03.690Z,4.07
2018-12-11T23:37:32.590Z,4.57
2018-12-11T23:40:01.456Z,4.13
2018-12-11T23:42:30.366Z,4.03
2018-12-11T23:44:59.192Z,3.73
2018-12-11T23:47:28.034Z,3.70
2018-12-11T23:49:57.025Z,4.47
2018-12-11T23:52:25.911Z,4.27
2018-12-11T23:54:54.758Z,3.77
2018-12-11T23:57:23.676Z,4.00
2018-12-11T23:59:52.615Z,3.77
